createdAt,value
2023-03-21T00:02:24.575Z,28.83
2023-03-21T00:07:27.157Z,27.60
2023-03-21T00:12:32.636Z,24.77
2023-03-21T00:17:36.475Z,26.70
2023-03-21T00:22:39.047Z,27.10
2023-03-21T00:28:01.047Z,27.13
2023-03-21T00:33:19.644Z,29.67
2023-03-21T00:38:25.203Z,21.63
2023-03-21T00:43:30.561Z,24.13
2023-03-21T00:48:33.136Z,22.98
2023-03-21T00:53:35.891Z,24.23
2023-03-21T00:58:38.374Z,27.05
2023-03-21T01:03:51.118Z,27.30
2023-03-21T01:08:53.980Z,25.67
2023-03-21T01:14:10.895Z,22.48
2023-03-21T01:19:37.623Z,24.00
2023-03-21T01:24:53.842Z,25.70
2023-03-21T01:29:58.675Z,25.37
2023-03-21T01:35:01.650Z,25.50
2023-03-21T01:40:05.473Z,31.73
2023-03-21T01:45:47.008Z,27.17
2023-03-21T01:50:52.359Z,24.42
2023-03-21T01:56:28.093Z,28.03
2023-03-21T02:01:38.605Z,24.30
2023-03-21T02:06:50.128Z,23.33
2023-03-21T02:12:11.474Z,32.23
2023-03-21T02:17:52.400Z,28.77
2023-03-21T02:23:24.303Z,24.57
2023-03-21T02:28:31.409Z,26.83
2023-03-21T02:33:45.578Z,24.27
2023-03-21T02:38:59.492Z,21.33
2023-03-21T02:44:23.981Z,24.92
2023-03-21T02:49:32.505Z,31.60
2023-03-21T02:54:47.516Z,30.20
2023-03-21T03:00:00.138Z,27.67
2023-03-21T03:05:22.321Z,29.57
2023-03-21T03:10:42.028Z,37.25
2023-03-21T03:15:48.283Z,31.73
2023-03-21T03:21:11.241Z,34.28
2023-03-21T03:26:39.253Z,32.70
2023-03-21T03:32:01.250Z,37.03
2023-03-21T03:37:18.346Z,36.80
2023-03-21T03:42:48.296Z,37.23
2023-03-21T03:48:18.554Z,37.65
2023-03-21T03:53:35.329Z,34.83
2023-03-21T03:58:45.988Z,37.00
2023-03-21T04:04:00.982Z,42.42
2023-03-21T04:09:20.520Z,34.63
2023-03-21T04:14:35.586Z,33.65
2023-03-21T04:19:41.915Z,30.40
2023-03-21T04:24:45.035Z,37.50
2023-03-21T04:29:49.190Z,33.45
2023-03-21T04:35:03.199Z,30.27
2023-03-21T04:40:07.999Z,30.98
2023-03-21T04:45:11.521Z,31.25
2023-03-21T04:50:16.322Z,29.23
2023-03-21T04:55:22.048Z,27.02
2023-03-21T05:00:25.941Z,30.10
2023-03-21T05:05:28.497Z,26.13
2023-03-21T05:10:31.324Z,21.50
2023-03-21T05:15:34.603Z,19.80
2023-03-21T05:20:44.268Z,16.08
2023-03-21T05:25:47.748Z,16.53
2023-03-21T05:30:56.434Z,13.13
2023-03-21T05:35:59.381Z,18.15
2023-03-21T05:41:06.259Z,14.07
2023-03-21T05:46:09.844Z,14.43
2023-03-21T05:51:12.514Z,13.67
2023-03-21T05:56:15.806Z,10.43
2023-03-21T06:01:31.969Z,11.57
2023-03-21T06:06:46.364Z,11.53
2023-03-21T06:11:53.258Z,11.10
2023-03-21T06:17:16.111Z,8.93
2023-03-21T06:22:24.449Z,9.68
2023-03-21T06:27:27.436Z,9.48
2023-03-21T06:32:31.796Z,9.60
2023-03-21T06:37:45.823Z,8.00
2023-03-21T06:42:49.154Z,9.50
2023-03-21T06:47:52.311Z,9.75
2023-03-21T06:53:15.286Z,8.35
2023-03-21T06:58:44.370Z,5.77
2023-03-21T07:03:59.206Z,6.80
2023-03-21T07:09:05.723Z,6.17
2023-03-21T07:14:09.306Z,6.20
2023-03-21T07:19:12.084Z,7.60
2023-03-21T07:24:14.841Z,7.23
2023-03-21T07:29:17.907Z,7.35
2023-03-21T07:34:21.185Z,7.57
2023-03-21T07:39:24.028Z,7.90
2023-03-21T07:44:29.841Z,7.90
2023-03-21T07:49:39.443Z,8.73
2023-03-21T07:54:43.034Z,9.80
2023-03-21T07:59:46.159Z,8.93
2023-03-21T08:04:48.814Z,6.25
2023-03-21T08:09:51.595Z,8.23
2023-03-21T08:14:54.411Z,9.17
2023-03-21T08:19:57.414Z,8.02
2023-03-21T08:25:01.328Z,7.60
2023-03-21T08:30:04.416Z,11.65
2023-03-21T08:35:10.614Z,10.63
2023-03-21T08:40:17.851Z,14.63
2023-03-21T08:45:20.956Z,14.68
2023-03-21T08:50:26.977Z,11.37
2023-03-21T08:55:31.954Z,13.00
2023-03-21T09:00:34.776Z,14.10
2023-03-21T09:05:38.114Z,14.17
2023-03-21T09:10:41.116Z,14.75
2023-03-21T09:15:43.922Z,14.57
2023-03-21T09:20:47.656Z,17.17
2023-03-21T09:25:51.109Z,17.20
2023-03-21T09:30:55.680Z,14.77
2023-03-21T09:36:00.936Z,18.55
2023-03-21T09:41:37.887Z,19.80
2023-03-21T09:46:56.564Z,20.52
2023-03-21T09:52:03.987Z,17.77
2023-03-21T09:57:33.682Z,19.30
2023-03-21T10:02:40.636Z,17.58
2023-03-21T10:08:05.763Z,19.50
2023-03-21T10:13:16.072Z,18.80
2023-03-21T10:18:29.636Z,20.67
2023-03-21T10:23:32.406Z,15.10
2023-03-21T10:28:52.363Z,22.48
2023-03-21T10:33:59.400Z,20.93
2023-03-21T10:39:21.998Z,18.98
2023-03-21T10:44:31.704Z,19.63
2023-03-21T10:49:56.484Z,17.50
2023-03-21T10:55:16.965Z,19.00
2023-03-21T11:00:27.812Z,18.77
2023-03-21T11:05:42.230Z,21.27
2023-03-21T11:11:06.184Z,21.33
2023-03-21T11:16:34.340Z,22.53
2023-03-21T11:21:37.931Z,19.88
2023-03-21T11:26:43.780Z,18.17
2023-03-21T11:31:46.854Z,20.40
2023-03-21T11:36:51.759Z,21.38
2023-03-21T11:41:54.643Z,24.40
2023-03-21T11:46:57.870Z,21.58
2023-03-21T11:52:25.471Z,22.33
2023-03-21T11:57:50.270Z,22.67
2023-03-21T12:03:03.135Z,28.35
2023-03-21T12:08:33.297Z,26.67
2023-03-21T12:14:15.130Z,25.40
2023-03-21T12:19:42.751Z,26.10
2023-03-21T12:24:59.256Z,27.77
2023-03-21T12:30:27.637Z,28.50
2023-03-21T12:36:08.380Z,27.50
2023-03-21T12:41:34.641Z,26.25
2023-03-21T12:46:43.290Z,28.50
2023-03-21T12:51:50.021Z,27.70
2023-03-21T12:57:07.795Z,27.63
2023-03-21T13:02:33.412Z,30.37
2023-03-21T13:07:42.056Z,33.53
2023-03-21T13:13:01.452Z,28.27
2023-03-21T13:18:25.134Z,25.52
2023-03-21T13:23:36.834Z,26.48
2023-03-21T13:28:41.550Z,30.53
2023-03-21T13:33:49.980Z,31.73
2023-03-21T13:38:59.690Z,24.67
2023-03-21T13:44:03.170Z,25.52
2023-03-21T13:49:08.929Z,25.55
2023-03-21T13:54:14.994Z,29.40
2023-03-21T13:59:37.775Z,29.92
2023-03-21T14:05:00.006Z,26.90
2023-03-21T14:10:29.804Z,24.02
2023-03-21T14:15:56.590Z,32.17
2023-03-21T14:21:02.166Z,35.37
2023-03-21T14:26:06.539Z,36.17
2023-03-21T14:31:17.037Z,32.57
2023-03-21T14:36:29.758Z,37.28
2023-03-21T14:41:34.809Z,38.83
2023-03-21T14:46:38.244Z,32.17
2023-03-21T14:51:42.998Z,40.97
2023-03-21T14:56:50.999Z,42.07
2023-03-21T15:01:54.983Z,43.72
2023-03-21T15:07:05.344Z,38.75
2023-03-21T15:12:09.726Z,46.27
2023-03-21T15:17:12.518Z,42.08
2023-03-21T15:22:39.915Z,42.57
2023-03-21T15:27:43.707Z,43.28
2023-03-21T15:32:47.449Z,43.55
2023-03-21T15:37:59.842Z,45.37
2023-03-21T15:43:21.672Z,44.10
2023-03-21T15:48:29.410Z,44.90
2023-03-21T15:53:37.777Z,42.72
2023-03-21T15:58:48.183Z,44.28
2023-03-21T16:04:03.103Z,45.80
2023-03-21T16:09:14.652Z,43.85
2023-03-21T16:14:19.086Z,40.97
2023-03-21T16:19:22.322Z,43.53
2023-03-21T16:24:25.298Z,42.35
2023-03-21T16:29:27.934Z,42.97
2023-03-21T16:34:32.418Z,43.22
2023-03-21T16:39:35.139Z,44.37
2023-03-21T16:44:39.658Z,46.72
2023-03-21T16:49:42.714Z,40.72
2023-03-21T16:54:45.507Z,44.07
2023-03-21T16:59:48.893Z,42.50
2023-03-21T17:04:53.553Z,48.70
2023-03-21T17:09:56.698Z,46.55
2023-03-21T17:14:59.383Z,51.95
2023-03-21T17:20:11.232Z,49.40
2023-03-21T17:25:14.396Z,50.53
2023-03-21T17:30:33.364Z,47.07
2023-03-21T17:35:36.293Z,48.72
2023-03-21T17:40:39.211Z,54.90
2023-03-21T17:45:42.259Z,51.87
2023-03-21T17:50:45.042Z,49.85
2023-03-21T17:55:47.926Z,55.07
2023-03-21T18:00:50.751Z,60.67
2023-03-21T18:05:53.626Z,62.13
2023-03-21T18:10:56.194Z,53.43
2023-03-21T18:15:59.749Z,53.58
2023-03-21T18:21:03.242Z,57.80
2023-03-21T18:26:08.105Z,57.60
2023-03-21T18:31:19.422Z,58.30
2023-03-21T18:36:27.852Z,66.47
2023-03-21T18:41:32.564Z,69.93
2023-03-21T18:46:37.124Z,63.10
2023-03-21T18:51:40.266Z,72.40
2023-03-21T18:57:31.822Z,71.47
2023-03-21T19:02:08.738Z,67.83
2023-03-21T19:07:11.791Z,71.38
2023-03-21T19:12:14.726Z,57.30
2023-03-21T19:18:07.691Z,70.97
2023-03-21T19:22:41.618Z,60.45
2023-03-21T19:27:44.568Z,69.33
2023-03-21T19:32:47.436Z,70.80
2023-03-21T19:37:50.320Z,94.30
2023-03-21T19:42:53.217Z,95.63
2023-03-21T19:47:55.900Z,88.00
2023-03-21T19:52:59.613Z,67.47
2023-03-21T19:58:02.651Z,81.32
2023-03-21T20:03:09.005Z,70.43
2023-03-21T20:08:12.167Z,68.57
2023-03-21T20:13:15.083Z,70.93
2023-03-21T20:18:18.218Z,73.07
2023-03-21T20:23:21.531Z,67.30
2023-03-21T20:28:28.074Z,63.20
2023-03-21T20:33:32.734Z,69.95
2023-03-21T20:38:37.200Z,66.85
2023-03-21T20:49:02.931Z,67.90
2023-03-21T20:54:06.471Z,69.63
2023-03-21T20:59:20.811Z,64.57
2023-03-21T21:04:55.738Z,73.93
2023-03-21T21:09:54.792Z,69.03
2023-03-21T21:14:57.607Z,71.25
2023-03-21T21:20:02.356Z,71.57
2023-03-21T21:25:05.387Z,78.10
2023-03-21T21:30:10.056Z,62.03
2023-03-21T21:35:13.203Z,75.60
2023-03-21T21:40:18.580Z,75.25
2023-03-21T21:45:21.594Z,79.97
2023-03-21T21:50:24.728Z,73.20
2023-03-21T21:55:27.322Z,73.70
2023-03-21T22:00:32.569Z,75.80
2023-03-21T22:05:35.339Z,68.30
2023-03-21T22:10:38.442Z,65.93
2023-03-21T22:15:41.592Z,71.03
2023-03-21T22:20:45.570Z,61.50
2023-03-21T22:25:52.374Z,57.20
2023-03-21T22:30:56.418Z,60.95
2023-03-21T22:35:59.032Z,66.63
2023-03-21T22:41:04.185Z,69.30
2023-03-21T22:46:07.274Z,73.85
2023-03-21T22:51:10.883Z,54.47
2023-03-21T22:56:13.668Z,60.00
2023-03-21T23:01:16.736Z,62.93
2023-03-21T23:06:20.105Z,62.83
2023-03-21T23:11:23.110Z,67.80
2023-03-21T23:16:25.812Z,73.03
2023-03-21T23:21:29.094Z,78.75
2023-03-21T23:26:31.918Z,66.60
2023-03-21T23:31:35.526Z,71.32
2023-03-21T23:36:38.254Z,69.70
2023-03-21T23:41:42.963Z,68.93
2023-03-21T23:46:45.664Z,72.22
2023-03-21T23:51:48.406Z,69.80
2023-03-21T23:56:51.274Z,61.88
